首页
METAR-TAF:

METAR-TAF

机场 :

威廉姆斯湖, 不列颠哥伦比亚, 加拿大

纬度: 52-11N, 经度: 122-03W, 海拔: 940米

当前天气观测

该预报发布于46分钟前的09:00 UTC
风速13节,风向东转东南
温度 4°C
湿度 75%
气压 1008 hPa
能見度: 24.1公里
多云层高于6000英尺
阴天层高于10000英尺
小雨

METAR: CYWL 150900Z 12013KT 15SM -RA BKN060 OVC100 04/00 A2978 RMK SC5AC3 SLP112

时间: 01:46 (09:46 UTC)

预报

该预报发布于3小时和8分钟前的06:38 UTC
预报有效从15日的 07点(UTC)到 15日的 19点(UTC)
风速8节,风向东南
能見度: 10公里
少量云层高于6000英尺
多云层高于12000英尺
短暂存在
从 15日的 07点(UTC)到 15日的 17点(UTC)
能見度: 10公里
多云层高于6000英尺
阴天层高于10000英尺
小雨
从 15日的 1700点(UTC)
风速7节,风向东南
能見度: 10公里
散云层高于2000英尺
阴天层高于6000英尺
小雨
短暂存在
从 15日的 17点(UTC)到 15日的 19点(UTC)
能見度: 8.0公里
多云层高于2000英尺
阴天层高于6000英尺
小阵雨, 轻雾

TAF: CYWL 150638Z 1507/1519 13008KT P6SM FEW060 BKN120 TEMPO 1507/1517 P6SM -RA BKN060 OVC100 FM151700 14007KT P6SM -RA SCT020 OVC060 TEMPO 1517/1519 5SM -SHRA BR BKN020 OVC060 RMK NXT FCST BY 151300Z

超过4000个机场的气象观测和天气预报(METAR&TAF报告)。

可查询的气象台以黄色和红色小点在地图上表示。

将鼠标移到小点上方,可查看气象台名称。

然后点击查看天气观测和预报。

如需切换地图:点击带黑十字的绿色按钮放大地图;点击带横线的绿色按钮缩小地图;或者点击绿色箭头查看邻近地区的地图。


METAR-TAF: